sensor_id;sensor_type;location;lat;lon;timestamp;P1;durP1;ratioP1;P2;durP2;ratioP2
7049;SDS011;22263;52.260;10.548;2023-05-13T00:01:04;0.30;;;0.30;;
7049;SDS011;22263;52.260;10.548;2023-05-13T00:03:34;0.30;;;0.30;;
7049;SDS011;22263;52.260;10.548;2023-05-13T00:06:04;0.30;;;0.30;;
7049;SDS011;22263;52.260;10.548;2023-05-13T00:08:34;0.30;;;0.30;;
7049;SDS011;22263;52.260;10.548;2023-05-13T00:11:04;0.30;;;0.30;;
7049;SDS011;22263;52.260;10.548;2023-05-13T00:13:34;0.30;;;0.30;;
7049;SDS011;22263;52.260;10.548;2023-05-13T00:16:07;0.30;;;0.30;;
7049;SDS011;22263;52.260;10.548;2023-05-13T00:18:37;0.30;;;0.30;;
7049;SDS011;22263;52.260;10.548;2023-05-13T00:21:08;0.30;;;0.30;;
7049;SDS011;22263;52.260;10.548;2023-05-13T00:23:38;0.30;;;0.30;;
7049;SDS011;22263;52.260;10.548;2023-05-13T00:26:08;0.30;;;0.30;;
7049;SDS011;22263;52.260;10.548;2023-05-13T00:28:38;0.30;;;0.30;;
7049;SDS011;22263;52.260;10.548;2023-05-13T00:31:10;0.30;;;0.30;;
7049;SDS011;22263;52.260;10.548;2023-05-13T00:33:40;0.30;;;0.30;;
7049;SDS011;22263;52.260;10.548;2023-05-13T00:36:09;0.30;;;0.30;;
7049;SDS011;22263;52.260;10.548;2023-05-13T00:38:39;0.30;;;0.30;;
7049;SDS011;22263;52.260;10.548;2023-05-13T00:41:10;0.30;;;0.30;;
7049;SDS011;22263;52.260;10.548;2023-05-13T00:43:40;0.30;;;0.30;;
7049;SDS011;22263;52.260;10.548;2023-05-13T00:46:12;0.30;;;0.30;;
7049;SDS011;22263;52.260;10.548;2023-05-13T00:48:43;0.30;;;0.30;;
7049;SDS011;22263;52.260;10.548;2023-05-13T00:51:13;0.30;;;0.30;;
7049;SDS011;22263;52.260;10.548;2023-05-13T00:53:43;0.22;;;0.22;;
7049;SDS011;22263;52.260;10.548;2023-05-13T00:56:16;0.30;;;0.30;;
7049;SDS011;22263;52.260;10.548;2023-05-13T00:58:47;0.30;;;0.30;;
7049;SDS011;22263;52.260;10.548;2023-05-13T01:01:23;0.30;;;0.30;;
7049;SDS011;22263;52.260;10.548;2023-05-13T01:04:01;0.30;;;0.30;;
7049;SDS011;22263;52.260;10.548;2023-05-13T01:06:39;0.30;;;0.30;;
7049;SDS011;22263;52.260;10.548;2023-05-13T01:09:18;0.40;;;0.40;;
7049;SDS011;22263;52.260;10.548;2023-05-13T01:11:50;0.30;;;0.30;;
7049;SDS011;22263;52.260;10.548;2023-05-13T01:14:24;0.30;;;0.30;;
7049;SDS011;22263;52.260;10.548;2023-05-13T01:17:07;0.40;;;0.40;;
7049;SDS011;22263;52.260;10.548;2023-05-13T01:19:40;0.30;;;0.30;;
7049;SDS011;22263;52.260;10.548;2023-05-13T01:22:15;0.30;;;0.30;;
7049;SDS011;22263;52.260;10.548;2023-05-13T01:24:45;0.30;;;0.30;;
7049;SDS011;22263;52.260;10.548;2023-05-13T01:27:17;0.30;;;0.30;;
7049;SDS011;22263;52.260;10.548;2023-05-13T01:29:47;0.20;;;0.20;;
7049;SDS011;22263;52.260;10.548;2023-05-13T01:32:23;0.30;;;0.30;;
7049;SDS011;22263;52.260;10.548;2023-05-13T01:34:53;0.30;;;0.30;;
7049;SDS011;22263;52.260;10.548;2023-05-13T01:37:27;0.30;;;0.30;;
7049;SDS011;22263;52.260;10.548;2023-05-13T01:39:57;0.30;;;0.30;;
7049;SDS011;22263;52.260;10.548;2023-05-13T01:42:32;0.20;;;0.20;;
7049;SDS011;22263;52.260;10.548;2023-05-13T01:45:02;0.35;;;0.35;;
7049;SDS011;22263;52.260;10.548;2023-05-13T01:47:33;0.30;;;0.30;;
7049;SDS011;22263;52.260;10.548;2023-05-13T01:50:03;0.30;;;0.30;;
7049;SDS011;22263;52.260;10.548;2023-05-13T01:52:36;0.30;;;0.30;;
7049;SDS011;22263;52.260;10.548;2023-05-13T01:55:07;0.30;;;0.30;;
7049;SDS011;22263;52.260;10.548;2023-05-13T01:57:38;0.30;;;0.30;;
7049;SDS011;22263;52.260;10.548;2023-05-13T02:00:08;0.30;;;0.30;;
7049;SDS011;22263;52.260;10.548;2023-05-13T02:02:42;0.30;;;0.30;;
7049;SDS011;22263;52.260;10.548;2023-05-13T02:05:13;0.40;;;0.40;;
7049;SDS011;22263;52.260;10.548;2023-05-13T02:07:46;0.40;;;0.40;;
7049;SDS011;22263;52.260;10.548;2023-05-13T02:10:16;0.30;;;0.30;;
7049;SDS011;22263;52.260;10.548;2023-05-13T02:12:45;0.30;;;0.30;;
7049;SDS011;22263;52.260;10.548;2023-05-13T02:15:16;0.30;;;0.30;;
7049;SDS011;22263;52.260;10.548;2023-05-13T02:17:46;0.30;;;0.30;;
7049;SDS011;22263;52.260;10.548;2023-05-13T02:20:17;0.30;;;0.30;;
7049;SDS011;22263;52.260;10.548;2023-05-13T02:22:51;0.30;;;0.30;;
7049;SDS011;22263;52.260;10.548;2023-05-13T02:25:21;0.30;;;0.30;;
7049;SDS011;22263;52.260;10.548;2023-05-13T02:27:51;0.40;;;0.40;;
7049;SDS011;22263;52.260;10.548;2023-05-13T02:30:21;0.30;;;0.30;;
7049;SDS011;22263;52.260;10.548;2023-05-13T02:32:52;0.30;;;0.30;;
7049;SDS011;22263;52.260;10.548;2023-05-13T02:35:22;0.30;;;0.30;;
7049;SDS011;22263;52.260;10.548;2023-05-13T02:37:58;0.40;;;0.40;;
7049;SDS011;22263;52.260;10.548;2023-05-13T02:40:31;0.30;;;0.30;;
7049;SDS011;22263;52.260;10.548;2023-05-13T02:43:00;0.30;;;0.30;;
7049;SDS011;22263;52.260;10.548;2023-05-13T02:45:44;0.30;;;0.30;;
7049;SDS011;22263;52.260;10.548;2023-05-13T02:48:14;0.30;;;0.30;;
7049;SDS011;22263;52.260;10.548;2023-05-13T02:50:44;0.30;;;0.30;;
7049;SDS011;22263;52.260;10.548;2023-05-13T02:53:16;0.30;;;0.30;;
7049;SDS011;22263;52.260;10.548;2023-05-13T02:55:51;0.30;;;0.30;;
7049;SDS011;22263;52.260;10.548;2023-05-13T02:58:24;0.30;;;0.30;;
7049;SDS011;22263;52.260;10.548;2023-05-13T03:00:54;0.30;;;0.30;;
7049;SDS011;22263;52.260;10.548;2023-05-13T03:03:24;0.30;;;0.30;;
7049;SDS011;22263;52.260;10.548;2023-05-13T03:05:55;0.40;;;0.40;;
7049;SDS011;22263;52.260;10.548;2023-05-13T03:08:27;0.50;;;0.50;;
7049;SDS011;22263;52.260;10.548;2023-05-13T03:10:58;0.30;;;0.30;;
7049;SDS011;22263;52.260;10.548;2023-05-13T03:13:28;0.30;;;0.30;;
7049;SDS011;22263;52.260;10.548;2023-05-13T03:15:57;0.30;;;0.30;;
7049;SDS011;22263;52.260;10.548;2023-05-13T03:18:27;0.30;;;0.30;;
7049;SDS011;22263;52.260;10.548;2023-05-13T03:20:58;0.30;;;0.30;;
7049;SDS011;22263;52.260;10.548;2023-05-13T03:23:31;0.40;;;0.40;;
7049;SDS011;22263;52.260;10.548;2023-05-13T03:26:04;0.30;;;0.30;;
7049;SDS011;22263;52.260;10.548;2023-05-13T03:28:33;0.32;;;0.32;;
7049;SDS011;22263;52.260;10.548;2023-05-13T03:31:03;0.32;;;0.32;;
7049;SDS011;22263;52.260;10.548;2023-05-13T03:33:36;0.40;;;0.40;;
7049;SDS011;22263;52.260;10.548;2023-05-13T03:36:07;0.40;;;0.40;;
7049;SDS011;22263;52.260;10.548;2023-05-13T03:38:39;0.32;;;0.32;;
7049;SDS011;22263;52.260;10.548;2023-05-13T03:41:09;0.30;;;0.30;;
7049;SDS011;22263;52.260;10.548;2023-05-13T03:43:44;0.30;;;0.30;;
7049;SDS011;22263;52.260;10.548;2023-05-13T03:46:15;0.40;;;0.40;;
7049;SDS011;22263;52.260;10.548;2023-05-13T03:48:46;0.30;;;0.30;;
7049;SDS011;22263;52.260;10.548;2023-05-13T03:51:16;0.30;;;0.30;;
7049;SDS011;22263;52.260;10.548;2023-05-13T03:53:49;0.40;;;0.40;;
7049;SDS011;22263;52.260;10.548;2023-05-13T03:56:19;0.30;;;0.30;;
7049;SDS011;22263;52.260;10.548;2023-05-13T03:58:49;0.38;;;0.38;;
7049;SDS011;22263;52.260;10.548;2023-05-13T04:01:18;0.50;;;0.50;;
7049;SDS011;22263;52.260;10.548;2023-05-13T04:03:49;0.40;;;0.40;;
7049;SDS011;22263;52.260;10.548;2023-05-13T04:06:18;0.40;;;0.40;;
7049;SDS011;22263;52.260;10.548;2023-05-13T04:08:52;0.30;;;0.30;;
7049;SDS011;22263;52.260;10.548;2023-05-13T04:11:22;0.40;;;0.40;;
7049;SDS011;22263;52.260;10.548;2023-05-13T04:13:53;0.40;;;0.40;;
7049;SDS011;22263;52.260;10.548;2023-05-13T04:16:22;0.30;;;0.30;;
7049;SDS011;22263;52.260;10.548;2023-05-13T04:18:53;0.30;;;0.30;;
7049;SDS011;22263;52.260;10.548;2023-05-13T04:21:22;0.30;;;0.30;;
7049;SDS011;22263;52.260;10.548;2023-05-13T04:23:55;0.30;;;0.30;;
7049;SDS011;22263;52.260;10.548;2023-05-13T04:26:25;0.30;;;0.30;;
7049;SDS011;22263;52.260;10.548;2023-05-13T04:28:55;0.30;;;0.30;;
7049;SDS011;22263;52.260;10.548;2023-05-13T04:31:25;0.30;;;0.30;;
7049;SDS011;22263;52.260;10.548;2023-05-13T04:33:55;0.40;;;0.40;;
7049;SDS011;22263;52.260;10.548;2023-05-13T04:36:25;0.40;;;0.40;;
7049;SDS011;22263;52.260;10.548;2023-05-13T04:38:57;0.30;;;0.30;;
7049;SDS011;22263;52.260;10.548;2023-05-13T04:41:27;0.40;;;0.40;;
7049;SDS011;22263;52.260;10.548;2023-05-13T04:43:58;0.30;;;0.30;;
7049;SDS011;22263;52.260;10.548;2023-05-13T04:46:28;0.30;;;0.30;;
7049;SDS011;22263;52.260;10.548;2023-05-13T04:48:57;0.40;;;0.40;;
7049;SDS011;22263;52.260;10.548;2023-05-13T04:51:28;0.30;;;0.30;;
7049;SDS011;22263;52.260;10.548;2023-05-13T04:54:01;0.50;;;0.50;;
7049;SDS011;22263;52.260;10.548;2023-05-13T04:56:32;0.30;;;0.30;;
7049;SDS011;22263;52.260;10.548;2023-05-13T04:59:02;0.40;;;0.40;;
7049;SDS011;22263;52.260;10.548;2023-05-13T05:01:31;0.40;;;0.40;;
7049;SDS011;22263;52.260;10.548;2023-05-13T05:04:01;0.30;;;0.30;;
7049;SDS011;22263;52.260;10.548;2023-05-13T05:06:33;0.30;;;0.30;;
7049;SDS011;22263;52.260;10.548;2023-05-13T05:09:06;0.40;;;0.40;;
7049;SDS011;22263;52.260;10.548;2023-05-13T05:11:36;0.30;;;0.30;;
7049;SDS011;22263;52.260;10.548;2023-05-13T05:14:06;0.30;;;0.30;;
7049;SDS011;22263;52.260;10.548;2023-05-13T05:16:35;0.40;;;0.40;;
7049;SDS011;22263;52.260;10.548;2023-05-13T05:19:06;0.38;;;0.38;;
7049;SDS011;22263;52.260;10.548;2023-05-13T05:21:37;0.30;;;0.30;;
7049;SDS011;22263;52.260;10.548;2023-05-13T05:24:10;0.40;;;0.40;;
7049;SDS011;22263;52.260;10.548;2023-05-13T05:26:43;0.30;;;0.30;;
7049;SDS011;22263;52.260;10.548;2023-05-13T05:29:12;0.30;;;0.30;;
7049;SDS011;22263;52.260;10.548;2023-05-13T05:31:43;0.30;;;0.30;;
7049;SDS011;22263;52.260;10.548;2023-05-13T05:34:13;0.30;;;0.30;;
7049;SDS011;22263;52.260;10.548;2023-05-13T05:36:45;0.32;;;0.32;;
7049;SDS011;22263;52.260;10.548;2023-05-13T05:39:17;0.40;;;0.40;;
7049;SDS011;22263;52.260;10.548;2023-05-13T05:41:48;0.30;;;0.30;;
7049;SDS011;22263;52.260;10.548;2023-05-13T05:44:18;0.30;;;0.30;;
7049;SDS011;22263;52.260;10.548;2023-05-13T05:46:47;0.30;;;0.30;;
7049;SDS011;22263;52.260;10.548;2023-05-13T05:49:18;0.30;;;0.30;;
7049;SDS011;22263;52.260;10.548;2023-05-13T05:51:48;0.40;;;0.40;;
7049;SDS011;22263;52.260;10.548;2023-05-13T05:54:22;0.50;;;0.50;;
7049;SDS011;22263;52.260;10.548;2023-05-13T05:56:52;0.55;;;0.55;;
7049;SDS011;22263;52.260;10.548;2023-05-13T05:59:21;0.40;;;0.40;;
7049;SDS011;22263;52.260;10.548;2023-05-13T06:01:51;0.60;;;0.60;;
7049;SDS011;22263;52.260;10.548;2023-05-13T06:04:21;0.40;;;0.40;;
7049;SDS011;22263;52.260;10.548;2023-05-13T06:06:51;0.60;;;0.60;;
7049;SDS011;22263;52.260;10.548;2023-05-13T06:09:23;0.65;;;0.65;;
7049;SDS011;22263;52.260;10.548;2023-05-13T06:11:53;0.30;;;0.30;;
7049;SDS011;22263;52.260;10.548;2023-05-13T06:14:23;0.40;;;0.40;;
7049;SDS011;22263;52.260;10.548;2023-05-13T06:16:53;0.40;;;0.40;;
7049;SDS011;22263;52.260;10.548;2023-05-13T06:19:22;0.30;;;0.30;;
7049;SDS011;22263;52.260;10.548;2023-05-13T06:21:52;0.30;;;0.30;;
7049;SDS011;22263;52.260;10.548;2023-05-13T06:24:28;0.20;;;0.20;;
7049;SDS011;22263;52.260;10.548;2023-05-13T06:26:57;0.70;;;0.70;;
7049;SDS011;22263;52.260;10.548;2023-05-13T06:29:27;0.40;;;0.40;;
7049;SDS011;22263;52.260;10.548;2023-05-13T06:31:57;0.40;;;0.40;;
7049;SDS011;22263;52.260;10.548;2023-05-13T06:34:27;0.40;;;0.40;;
7049;SDS011;22263;52.260;10.548;2023-05-13T06:36:57;0.40;;;0.40;;
7049;SDS011;22263;52.260;10.548;2023-05-13T06:39:30;0.68;;;0.68;;
7049;SDS011;22263;52.260;10.548;2023-05-13T06:41:59;0.40;;;0.40;;
7049;SDS011;22263;52.260;10.548;2023-05-13T06:44:32;0.30;;;0.30;;
7049;SDS011;22263;52.260;10.548;2023-05-13T06:47:04;0.30;;;0.30;;
7049;SDS011;22263;52.260;10.548;2023-05-13T06:49:34;0.30;;;0.30;;
7049;SDS011;22263;52.260;10.548;2023-05-13T06:52:04;0.30;;;0.30;;
7049;SDS011;22263;52.260;10.548;2023-05-13T06:54:37;0.50;;;0.50;;
7049;SDS011;22263;52.260;10.548;2023-05-13T06:57:06;0.45;;;0.45;;
7049;SDS011;22263;52.260;10.548;2023-05-13T06:59:36;0.30;;;0.30;;
7049;SDS011;22263;52.260;10.548;2023-05-13T07:02:06;0.50;;;0.50;;
7049;SDS011;22263;52.260;10.548;2023-05-13T07:04:36;0.60;;;0.60;;
7049;SDS011;22263;52.260;10.548;2023-05-13T07:07:06;0.30;;;0.30;;
7049;SDS011;22263;52.260;10.548;2023-05-13T07:09:38;0.20;;;0.20;;
7049;SDS011;22263;52.260;10.548;2023-05-13T07:12:08;0.25;;;0.25;;
7049;SDS011;22263;52.260;10.548;2023-05-13T07:14:38;0.30;;;0.30;;
7049;SDS011;22263;52.260;10.548;2023-05-13T07:17:09;0.30;;;0.30;;
7049;SDS011;22263;52.260;10.548;2023-05-13T07:19:39;0.30;;;0.30;;
7049;SDS011;22263;52.260;10.548;2023-05-13T07:22:08;0.20;;;0.20;;
7049;SDS011;22263;52.260;10.548;2023-05-13T07:24:41;0.20;;;0.20;;
7049;SDS011;22263;52.260;10.548;2023-05-13T07:27:10;0.20;;;0.20;;
7049;SDS011;22263;52.260;10.548;2023-05-13T07:29:40;0.20;;;0.20;;
7049;SDS011;22263;52.260;10.548;2023-05-13T07:32:10;0.20;;;0.20;;
7049;SDS011;22263;52.260;10.548;2023-05-13T07:34:39;0.30;;;0.30;;
7049;SDS011;22263;52.260;10.548;2023-05-13T07:37:09;0.20;;;0.20;;
7049;SDS011;22263;52.260;10.548;2023-05-13T07:39:41;0.20;;;0.20;;
7049;SDS011;22263;52.260;10.548;2023-05-13T07:42:11;0.20;;;0.20;;
7049;SDS011;22263;52.260;10.548;2023-05-13T07:44:40;0.10;;;0.10;;
7049;SDS011;22263;52.260;10.548;2023-05-13T07:47:10;0.40;;;0.40;;
7049;SDS011;22263;52.260;10.548;2023-05-13T07:49:40;0.22;;;0.22;;
7049;SDS011;22263;52.260;10.548;2023-05-13T07:52:10;0.20;;;0.20;;
7049;SDS011;22263;52.260;10.548;2023-05-13T07:54:42;0.50;;;0.50;;
7049;SDS011;22263;52.260;10.548;2023-05-13T07:57:12;0.20;;;0.20;;
7049;SDS011;22263;52.260;10.548;2023-05-13T07:59:42;0.50;;;0.50;;
7049;SDS011;22263;52.260;10.548;2023-05-13T08:02:11;0.20;;;0.20;;
7049;SDS011;22263;52.260;10.548;2023-05-13T08:04:41;0.20;;;0.20;;
7049;SDS011;22263;52.260;10.548;2023-05-13T08:07:11;0.20;;;0.20;;
7049;SDS011;22263;52.260;10.548;2023-05-13T08:09:43;0.10;;;0.10;;
7049;SDS011;22263;52.260;10.548;2023-05-13T08:12:13;0.20;;;0.20;;
7049;SDS011;22263;52.260;10.548;2023-05-13T08:14:42;0.25;;;0.25;;
7049;SDS011;22263;52.260;10.548;2023-05-13T08:17:14;0.20;;;0.20;;
7049;SDS011;22263;52.260;10.548;2023-05-13T08:19:45;0.10;;;0.10;;
7049;SDS011;22263;52.260;10.548;2023-05-13T08:22:14;0.10;;;0.10;;
7049;SDS011;22263;52.260;10.548;2023-05-13T08:24:46;0.13;;;0.13;;
7049;SDS011;22263;52.260;10.548;2023-05-13T08:27:16;0.13;;;0.13;;
7049;SDS011;22263;52.260;10.548;2023-05-13T08:29:46;0.00;;;0.00;;
7049;SDS011;22263;52.260;10.548;2023-05-13T08:32:15;0.10;;;0.10;;
7049;SDS011;22263;52.260;10.548;2023-05-13T08:34:45;0.10;;;0.10;;
7049;SDS011;22263;52.260;10.548;2023-05-13T08:37:15;0.00;;;0.00;;
7049;SDS011;22263;52.260;10.548;2023-05-13T08:39:47;0.10;;;0.10;;
7049;SDS011;22263;52.260;10.548;2023-05-13T08:42:17;0.10;;;0.10;;
7049;SDS011;22263;52.260;10.548;2023-05-13T08:44:50;0.10;;;0.10;;
7049;SDS011;22263;52.260;10.548;2023-05-13T08:47:24;0.08;;;0.08;;
7049;SDS011;22263;52.260;10.548;2023-05-13T08:50:02;0.10;;;0.10;;
7049;SDS011;22263;52.260;10.548;2023-05-13T08:52:32;0.00;;;0.00;;
7049;SDS011;22263;52.260;10.548;2023-05-13T08:55:05;0.30;;;0.30;;
7049;SDS011;22263;52.260;10.548;2023-05-13T08:57:37;0.30;;;0.30;;
7049;SDS011;22263;52.260;10.548;2023-05-13T09:00:07;0.10;;;0.10;;
7049;SDS011;22263;52.260;10.548;2023-05-13T09:02:40;0.10;;;0.10;;
7049;SDS011;22263;52.260;10.548;2023-05-13T09:05:09;0.10;;;0.10;;
7049;SDS011;22263;52.260;10.548;2023-05-13T09:07:39;0.20;;;0.20;;
7049;SDS011;22263;52.260;10.548;2023-05-13T09:10:12;0.25;;;0.25;;
7049;SDS011;22263;52.260;10.548;2023-05-13T09:12:42;0.30;;;0.30;;
7049;SDS011;22263;52.260;10.548;2023-05-13T09:15:16;0.10;;;0.10;;
7049;SDS011;22263;52.260;10.548;2023-05-13T09:17:48;0.20;;;0.20;;
7049;SDS011;22263;52.260;10.548;2023-05-13T09:20:20;0.10;;;0.10;;
7049;SDS011;22263;52.260;10.548;2023-05-13T09:22:52;0.10;;;0.10;;
7049;SDS011;22263;52.260;10.548;2023-05-13T09:25:25;0.10;;;0.10;;
7049;SDS011;22263;52.260;10.548;2023-05-13T09:27:56;0.15;;;0.15;;
7049;SDS011;22263;52.260;10.548;2023-05-13T09:30:28;0.20;;;0.20;;
7049;SDS011;22263;52.260;10.548;2023-05-13T09:33:06;0.10;;;0.10;;
7049;SDS011;22263;52.260;10.548;2023-05-13T09:35:37;0.10;;;0.10;;
7049;SDS011;22263;52.260;10.548;2023-05-13T09:38:12;0.10;;;0.10;;
7049;SDS011;22263;52.260;10.548;2023-05-13T09:40:53;0.08;;;0.08;;
7049;SDS011;22263;52.260;10.548;2023-05-13T09:43:24;0.10;;;0.10;;
7049;SDS011;22263;52.260;10.548;2023-05-13T09:45:55;0.20;;;0.20;;
7049;SDS011;22263;52.260;10.548;2023-05-13T09:48:26;0.20;;;0.20;;
7049;SDS011;22263;52.260;10.548;2023-05-13T09:50:57;0.35;;;0.35;;
7049;SDS011;22263;52.260;10.548;2023-05-13T09:53:27;0.10;;;0.10;;
7049;SDS011;22263;52.260;10.548;2023-05-13T09:55:59;0.10;;;0.10;;
7049;SDS011;22263;52.260;10.548;2023-05-13T09:58:29;0.20;;;0.20;;
7049;SDS011;22263;52.260;10.548;2023-05-13T10:01:02;0.17;;;0.17;;
7049;SDS011;22263;52.260;10.548;2023-05-13T10:03:32;0.05;;;0.05;;
7049;SDS011;22263;52.260;10.548;2023-05-13T10:06:03;0.10;;;0.10;;
7049;SDS011;22263;52.260;10.548;2023-05-13T10:08:33;0.10;;;0.10;;
7049;SDS011;22263;52.260;10.548;2023-05-13T10:11:07;0.10;;;0.10;;
7049;SDS011;22263;52.260;10.548;2023-05-13T10:13:39;0.10;;;0.10;;
7049;SDS011;22263;52.260;10.548;2023-05-13T10:16:08;0.10;;;0.10;;
7049;SDS011;22263;52.260;10.548;2023-05-13T10:18:39;0.10;;;0.10;;
7049;SDS011;22263;52.260;10.548;2023-05-13T10:21:09;0.10;;;0.10;;
7049;SDS011;22263;52.260;10.548;2023-05-13T10:23:40;0.10;;;0.10;;
7049;SDS011;22263;52.260;10.548;2023-05-13T10:26:12;0.10;;;0.10;;
7049;SDS011;22263;52.260;10.548;2023-05-13T10:28:43;0.10;;;0.10;;
7049;SDS011;22263;52.260;10.548;2023-05-13T10:31:14;0.10;;;0.10;;
7049;SDS011;22263;52.260;10.548;2023-05-13T10:33:43;0.10;;;0.10;;
7049;SDS011;22263;52.260;10.548;2023-05-13T10:36:23;0.17;;;0.17;;
7049;SDS011;22263;52.260;10.548;2023-05-13T10:39:14;0.10;;;0.10;;
7049;SDS011;22263;52.260;10.548;2023-05-13T10:45:03;0.10;;;0.10;;
7049;SDS011;22263;52.260;10.548;2023-05-13T10:47:34;0.10;;;0.10;;
7049;SDS011;22263;52.260;10.548;2023-05-13T10:50:05;0.10;;;0.10;;
7049;SDS011;22263;52.260;10.548;2023-05-13T10:52:41;0.10;;;0.10;;
7049;SDS011;22263;52.260;10.548;2023-05-13T10:55:15;0.10;;;0.10;;
7049;SDS011;22263;52.260;10.548;2023-05-13T11:00:41;0.10;;;0.10;;
7049;SDS011;22263;52.260;10.548;2023-05-13T11:03:13;0.10;;;0.10;;
7049;SDS011;22263;52.260;10.548;2023-05-13T11:05:59;0.13;;;0.13;;
7049;SDS011;22263;52.260;10.548;2023-05-13T11:08:35;0.10;;;0.10;;
7049;SDS011;22263;52.260;10.548;2023-05-13T11:11:16;0.10;;;0.10;;
7049;SDS011;22263;52.260;10.548;2023-05-13T11:14:05;0.10;;;0.10;;
7049;SDS011;22263;52.260;10.548;2023-05-13T11:16:37;0.38;;;0.38;;
7049;SDS011;22263;52.260;10.548;2023-05-13T11:19:08;0.30;;;0.30;;
7049;SDS011;22263;52.260;10.548;2023-05-13T11:21:48;0.00;;;0.00;;
7049;SDS011;22263;52.260;10.548;2023-05-13T11:24:20;0.20;;;0.20;;
7049;SDS011;22263;52.260;10.548;2023-05-13T11:26:51;0.20;;;0.20;;
7049;SDS011;22263;52.260;10.548;2023-05-13T11:29:31;0.17;;;0.17;;
7049;SDS011;22263;52.260;10.548;2023-05-13T11:32:03;0.30;;;0.30;;
7049;SDS011;22263;52.260;10.548;2023-05-13T11:34:34;0.10;;;0.10;;
7049;SDS011;22263;52.260;10.548;2023-05-13T11:37:08;0.10;;;0.10;;
7049;SDS011;22263;52.260;10.548;2023-05-13T11:39:39;0.10;;;0.10;;
7049;SDS011;22263;52.260;10.548;2023-05-13T11:42:09;0.10;;;0.10;;
7049;SDS011;22263;52.260;10.548;2023-05-13T11:44:45;0.10;;;0.10;;
7049;SDS011;22263;52.260;10.548;2023-05-13T11:47:18;0.10;;;0.10;;
7049;SDS011;22263;52.260;10.548;2023-05-13T11:49:54;0.10;;;0.10;;
7049;SDS011;22263;52.260;10.548;2023-05-13T11:52:24;0.20;;;0.20;;
7049;SDS011;22263;52.260;10.548;2023-05-13T11:54:55;0.13;;;0.13;;
7049;SDS011;22263;52.260;10.548;2023-05-13T11:57:26;0.10;;;0.10;;
7049;SDS011;22263;52.260;10.548;2023-05-13T12:00:01;0.10;;;0.10;;
7049;SDS011;22263;52.260;10.548;2023-05-13T12:02:33;0.00;;;0.00;;
7049;SDS011;22263;52.260;10.548;2023-05-13T12:05:07;0.22;;;0.22;;
7049;SDS011;22263;52.260;10.548;2023-05-13T12:07:38;0.30;;;0.30;;
7049;SDS011;22263;52.260;10.548;2023-05-13T12:10:08;0.17;;;0.17;;
7049;SDS011;22263;52.260;10.548;2023-05-13T12:12:38;0.10;;;0.10;;
7049;SDS011;22263;52.260;10.548;2023-05-13T12:15:12;0.10;;;0.10;;
7049;SDS011;22263;52.260;10.548;2023-05-13T12:17:44;0.00;;;0.00;;
7049;SDS011;22263;52.260;10.548;2023-05-13T12:20:15;0.10;;;0.10;;
7049;SDS011;22263;52.260;10.548;2023-05-13T12:22:50;0.10;;;0.10;;
7049;SDS011;22263;52.260;10.548;2023-05-13T12:25:41;0.10;;;0.10;;
7049;SDS011;22263;52.260;10.548;2023-05-13T12:28:13;0.00;;;0.00;;
7049;SDS011;22263;52.260;10.548;2023-05-13T12:30:52;0.10;;;0.10;;
7049;SDS011;22263;52.260;10.548;2023-05-13T12:33:24;0.10;;;0.10;;
7049;SDS011;22263;52.260;10.548;2023-05-13T12:38:52;0.20;;;0.20;;
7049;SDS011;22263;52.260;10.548;2023-05-13T12:41:26;0.10;;;0.10;;
7049;SDS011;22263;52.260;10.548;2023-05-13T12:43:57;0.40;;;0.40;;
7049;SDS011;22263;52.260;10.548;2023-05-13T12:46:31;0.10;;;0.10;;
7049;SDS011;22263;52.260;10.548;2023-05-13T12:49:02;0.10;;;0.10;;
7049;SDS011;22263;52.260;10.548;2023-05-13T12:51:32;0.05;;;0.05;;
7049;SDS011;22263;52.260;10.548;2023-05-13T12:54:02;0.10;;;0.10;;
7049;SDS011;22263;52.260;10.548;2023-05-13T12:56:31;0.28;;;0.28;;
7049;SDS011;22263;52.260;10.548;2023-05-13T12:59:01;0.20;;;0.20;;
7049;SDS011;22263;52.260;10.548;2023-05-13T13:01:33;0.20;;;0.20;;
7049;SDS011;22263;52.260;10.548;2023-05-13T13:04:03;0.40;;;0.40;;
7049;SDS011;22263;52.260;10.548;2023-05-13T13:06:33;0.10;;;0.10;;
7049;SDS011;22263;52.260;10.548;2023-05-13T13:09:03;0.00;;;0.00;;
7049;SDS011;22263;52.260;10.548;2023-05-13T13:11:33;0.00;;;0.00;;
7049;SDS011;22263;52.260;10.548;2023-05-13T13:14:02;0.10;;;0.10;;
7049;SDS011;22263;52.260;10.548;2023-05-13T13:16:35;0.10;;;0.10;;
7049;SDS011;22263;52.260;10.548;2023-05-13T13:19:05;0.00;;;0.00;;
7049;SDS011;22263;52.260;10.548;2023-05-13T13:21:34;0.10;;;0.10;;
7049;SDS011;22263;52.260;10.548;2023-05-13T13:24:04;0.05;;;0.05;;
7049;SDS011;22263;52.260;10.548;2023-05-13T13:26:34;0.00;;;0.00;;
7049;SDS011;22263;52.260;10.548;2023-05-13T13:29:04;0.10;;;0.10;;
7049;SDS011;22263;52.260;10.548;2023-05-13T13:31:36;0.10;;;0.10;;
7049;SDS011;22263;52.260;10.548;2023-05-13T13:34:06;0.00;;;0.00;;
7049;SDS011;22263;52.260;10.548;2023-05-13T13:36:37;0.00;;;0.00;;
7049;SDS011;22263;52.260;10.548;2023-05-13T13:39:07;0.10;;;0.10;;
7049;SDS011;22263;52.260;10.548;2023-05-13T13:41:37;0.10;;;0.10;;
7049;SDS011;22263;52.260;10.548;2023-05-13T13:44:06;0.10;;;0.10;;
7049;SDS011;22263;52.260;10.548;2023-05-13T13:46:39;0.10;;;0.10;;
7049;SDS011;22263;52.260;10.548;2023-05-13T13:49:09;0.10;;;0.10;;
7049;SDS011;22263;52.260;10.548;2023-05-13T13:51:49;0.05;;;0.05;;
7049;SDS011;22263;52.260;10.548;2023-05-13T13:54:19;0.00;;;0.00;;
7049;SDS011;22263;52.260;10.548;2023-05-13T13:56:49;0.00;;;0.00;;
7049;SDS011;22263;52.260;10.548;2023-05-13T13:59:19;0.00;;;0.00;;
7049;SDS011;22263;52.260;10.548;2023-05-13T14:01:51;0.10;;;0.10;;
7049;SDS011;22263;52.260;10.548;2023-05-13T14:04:22;0.10;;;0.10;;
7049;SDS011;22263;52.260;10.548;2023-05-13T14:06:53;0.10;;;0.10;;
7049;SDS011;22263;52.260;10.548;2023-05-13T14:09:23;0.03;;;0.03;;
7049;SDS011;22263;52.260;10.548;2023-05-13T14:11:53;0.08;;;0.08;;
7049;SDS011;22263;52.260;10.548;2023-05-13T14:14:23;0.10;;;0.10;;
7049;SDS011;22263;52.260;10.548;2023-05-13T14:16:55;0.00;;;0.00;;
7049;SDS011;22263;52.260;10.548;2023-05-13T14:19:25;0.10;;;0.10;;
7049;SDS011;22263;52.260;10.548;2023-05-13T14:21:54;0.00;;;0.00;;
7049;SDS011;22263;52.260;10.548;2023-05-13T14:24:24;0.00;;;0.00;;
7049;SDS011;22263;52.260;10.548;2023-05-13T14:26:55;0.10;;;0.10;;
7049;SDS011;22263;52.260;10.548;2023-05-13T14:29:25;0.10;;;0.10;;
7049;SDS011;22263;52.260;10.548;2023-05-13T14:31:57;0.10;;;0.10;;
7049;SDS011;22263;52.260;10.548;2023-05-13T14:34:29;0.10;;;0.10;;
7049;SDS011;22263;52.260;10.548;2023-05-13T14:36:58;0.00;;;0.00;;
7049;SDS011;22263;52.260;10.548;2023-05-13T14:39:28;0.10;;;0.10;;
7049;SDS011;22263;52.260;10.548;2023-05-13T14:41:58;0.10;;;0.10;;
7049;SDS011;22263;52.260;10.548;2023-05-13T14:44:28;0.00;;;0.00;;
7049;SDS011;22263;52.260;10.548;2023-05-13T14:47:00;0.00;;;0.00;;
7049;SDS011;22263;52.260;10.548;2023-05-13T14:49:30;0.10;;;0.10;;
7049;SDS011;22263;52.260;10.548;2023-05-13T14:51:59;0.00;;;0.00;;
7049;SDS011;22263;52.260;10.548;2023-05-13T14:54:29;0.10;;;0.10;;
7049;SDS011;22263;52.260;10.548;2023-05-13T14:57:01;0.10;;;0.10;;
7049;SDS011;22263;52.260;10.548;2023-05-13T14:59:31;0.05;;;0.05;;
7049;SDS011;22263;52.260;10.548;2023-05-13T15:02:04;0.10;;;0.10;;
7049;SDS011;22263;52.260;10.548;2023-05-13T15:04:34;0.00;;;0.00;;
7049;SDS011;22263;52.260;10.548;2023-05-13T15:07:04;0.10;;;0.10;;
7049;SDS011;22263;52.260;10.548;2023-05-13T15:09:35;0.10;;;0.10;;
7049;SDS011;22263;52.260;10.548;2023-05-13T15:12:06;0.10;;;0.10;;
7049;SDS011;22263;52.260;10.548;2023-05-13T15:14:36;0.00;;;0.00;;
7049;SDS011;22263;52.260;10.548;2023-05-13T15:17:08;0.00;;;0.00;;
7049;SDS011;22263;52.260;10.548;2023-05-13T15:19:41;0.10;;;0.10;;
7049;SDS011;22263;52.260;10.548;2023-05-13T15:22:10;0.00;;;0.00;;